Time;durP1;ratioP1;P1;durP2;ratioP2;P2;SDS_P1;SDS_P2;PMS_P1;PMS_P2;Temp;Humidity;BMP_temperature;BMP_pressure;BME280_temperature;BME280_humidity;BME280_pressure;Samples;Min_cycle;Max_cycle;Signal;HPM_P1;HPM_P2
2021/03/23 00:00:28;;;;;;;9.88;4.47;;;;;;;;;;4903869;29;20103;-69
2021/03/23 00:03:00;;;;;;;11.23;4.05;;;;;;;;;;4920735;29;20028;-69
2021/03/23 00:05:26;;;;;;;11.77;4.32;;;;;;;;;;4903948;29;20032;-68
2021/03/23 00:07:52;;;;;;;10.23;4.63;;;;;;;;;;4920551;29;20380;-70
2021/03/23 00:10:21;;;;;;;8.95;4.40;;;;;;;;;;4903468;29;20027;-68
2021/03/23 00:12:47;;;;;;;10.70;3.70;;;;;;;;;;4920510;29;20036;-69
2021/03/23 00:15:14;;;;;;;11.35;3.97;;;;;;;;;;4903197;29;20044;-68
2021/03/23 00:17:40;;;;;;;12.48;4.38;;;;;;;;;;4903089;29;20024;-68
2021/03/23 00:20:08;;;;;;;13.25;4.70;;;;;;;;;;4920823;29;20024;-69
2021/03/23 00:22:37;;;;;;;11.68;4.40;;;;;;;;;;4920556;29;20084;-67
2021/03/23 00:25:05;;;;;;;11.00;3.70;;;;;;;;;;4920467;29;20071;-68
2021/03/23 00:27:31;;;;;;;8.48;4.03;;;;;;;;;;4903425;29;20039;-68
2021/03/23 00:29:57;;;;;;;12.43;4.25;;;;;;;;;;4919846;29;20096;-68
2021/03/23 00:32:23;;;;;;;11.30;4.47;;;;;;;;;;4903354;29;20024;-68
2021/03/23 00:34:49;;;;;;;10.40;4.45;;;;;;;;;;4920056;29;20452;-69
2021/03/23 00:37:15;;;;;;;10.45;4.22;;;;;;;;;;4920056;29;20062;-70
2021/03/23 00:39:42;;;;;;;8.75;3.35;;;;;;;;;;4920259;29;20028;-68
2021/03/23 00:42:08;;;;;;;9.07;3.47;;;;;;;;;;4919917;29;20052;-69
2021/03/23 00:44:35;;;;;;;10.07;4.10;;;;;;;;;;4902852;29;20043;-68
2021/03/23 00:47:02;;;;;;;10.25;3.50;;;;;;;;;;4903127;29;20029;-67
2021/03/23 00:49:28;;;;;;;10.05;3.72;;;;;;;;;;4919808;29;20043;-69
2021/03/23 00:51:55;;;;;;;5.68;3.15;;;;;;;;;;4902869;29;20092;-67
2021/03/23 00:54:21;;;;;;;6.35;3.10;;;;;;;;;;4919907;29;20027;-68
2021/03/23 00:56:47;;;;;;;10.50;3.53;;;;;;;;;;4919955;29;20036;-69
2021/03/23 00:59:13;;;;;;;10.00;3.38;;;;;;;;;;4919883;29;20539;-69
2021/03/23 01:01:39;;;;;;;8.23;3.15;;;;;;;;;;4919652;29;20032;-68
2021/03/23 01:04:06;;;;;;;8.57;3.30;;;;;;;;;;4919883;29;20030;-68
2021/03/23 01:06:32;;;;;;;7.45;3.78;;;;;;;;;;4919464;29;20035;-67
2021/03/23 01:08:58;;;;;;;8.38;3.58;;;;;;;;;;4919528;29;20076;-67
2021/03/23 01:11:24;;;;;;;11.40;3.80;;;;;;;;;;4919693;29;20556;-67
2021/03/23 01:13:50;;;;;;;6.70;2.97;;;;;;;;;;4919324;29;20052;-68
2021/03/23 01:16:16;;;;;;;7.60;3.55;;;;;;;;;;4919872;29;20028;-66
2021/03/23 01:18:42;;;;;;;10.38;3.60;;;;;;;;;;4919164;29;20080;-68
2021/03/23 01:21:08;;;;;;;8.35;3.05;;;;;;;;;;4902525;29;20028;-67
2021/03/23 01:23:35;;;;;;;8.13;3.65;;;;;;;;;;4919162;29;20047;-67
2021/03/23 01:26:01;;;;;;;7.50;3.60;;;;;;;;;;4902331;29;20118;-67
2021/03/23 01:28:27;;;;;;;10.98;3.88;;;;;;;;;;4919611;29;20417;-66
2021/03/23 01:30:53;;;;;;;9.18;4.03;;;;;;;;;;4919456;29;20020;-68
2021/03/23 01:33:19;;;;;;;9.27;4.03;;;;;;;;;;4918752;29;20031;-66
2021/03/23 01:35:45;;;;;;;7.72;3.22;;;;;;;;;;4919192;29;20418;-68
2021/03/23 01:38:11;;;;;;;10.65;3.38;;;;;;;;;;4918918;29;20107;-67
2021/03/23 01:40:39;;;;;;;6.95;3.40;;;;;;;;;;4919032;29;20034;-67
2021/03/23 01:43:07;;;;;;;8.63;3.58;;;;;;;;;;4919112;29;20022;-67
2021/03/23 01:45:37;;;;;;;17.33;5.60;;;;;;;;;;4918916;29;20538;-68
2021/03/23 01:48:05;;;;;;;9.70;3.47;;;;;;;;;;4901896;29;20377;-67
2021/03/23 01:50:32;;;;;;;8.15;3.60;;;;;;;;;;4902035;29;20027;-67
2021/03/23 01:53:00;;;;;;;10.98;3.78;;;;;;;;;;4902000;29;20024;-67
2021/03/23 01:55:26;;;;;;;8.82;3.40;;;;;;;;;;4901499;29;20039;-66
2021/03/23 01:57:53;;;;;;;9.10;3.83;;;;;;;;;;4918838;29;20029;-67
2021/03/23 02:00:19;;;;;;;9.02;3.40;;;;;;;;;;4901798;29;20160;-68
2021/03/23 02:06:26;;;;;;;7.22;2.90;;;;;;;;;;4918542;29;20076;-69
2021/03/23 02:08:54;;;;;;;7.78;3.08;;;;;;;;;;4901388;29;20044;-68
2021/03/23 02:11:20;;;;;;;7.90;2.97;;;;;;;;;;4918462;29;20060;-69
2021/03/23 02:13:47;;;;;;;8.55;3.10;;;;;;;;;;4901563;29;20024;-68
2021/03/23 02:16:13;;;;;;;8.35;3.35;;;;;;;;;;4901247;29;20392;-68
2021/03/23 02:18:39;;;;;;;8.77;2.95;;;;;;;;;;4901173;29;20048;-68
2021/03/23 02:21:08;;;;;;;11.75;3.40;;;;;;;;;;4918490;29;20024;-68
2021/03/23 02:23:36;;;;;;;6.82;3.35;;;;;;;;;;4918155;29;20463;-70
2021/03/23 02:26:03;;;;;;;9.15;3.55;;;;;;;;;;4918110;29;20028;-68
2021/03/23 02:28:29;;;;;;;9.68;3.53;;;;;;;;;;4918424;29;20052;-69
2021/03/23 02:30:56;;;;;;;7.75;3.22;;;;;;;;;;4917757;29;20377;-69
2021/03/23 02:33:22;;;;;;;8.77;3.17;;;;;;;;;;4918007;29;20028;-70
2021/03/23 02:35:49;;;;;;;7.22;3.15;;;;;;;;;;4917600;29;20036;-69
2021/03/23 02:38:16;;;;;;;6.93;3.55;;;;;;;;;;4918477;29;20047;-67
2021/03/23 02:40:43;;;;;;;8.90;3.03;;;;;;;;;;4918006;29;20110;-69
2021/03/23 02:43:09;;;;;;;6.95;3.00;;;;;;;;;;4917503;29;20354;-67
2021/03/23 02:45:35;;;;;;;7.45;3.03;;;;;;;;;;4901100;29;20042;-68
2021/03/23 02:48:02;;;;;;;10.13;3.45;;;;;;;;;;4917823;29;20072;-69
2021/03/23 02:50:28;;;;;;;7.80;3.25;;;;;;;;;;4917534;29;20358;-68
2021/03/23 02:52:54;;;;;;;9.68;3.53;;;;;;;;;;4918223;29;20055;-68
2021/03/23 02:55:20;;;;;;;7.45;3.03;;;;;;;;;;4917960;29;20040;-67
2021/03/23 02:57:47;;;;;;;8.23;2.95;;;;;;;;;;4917875;29;20490;-67
2021/03/23 03:00:15;;;;;;;6.00;2.70;;;;;;;;;;4917607;29;20496;-69
2021/03/23 03:02:41;;;;;;;7.55;3.20;;;;;;;;;;4918107;29;20035;-68
2021/03/23 03:05:08;;;;;;;7.15;3.03;;;;;;;;;;4917492;29;20103;-69
2021/03/23 03:07:34;;;;;;;10.30;3.13;;;;;;;;;;4917766;29;20092;-69
2021/03/23 03:10:00;;;;;;;7.70;2.97;;;;;;;;;;4900723;29;20028;-69
2021/03/23 03:12:26;;;;;;;6.85;3.28;;;;;;;;;;4917438;29;20473;-69
2021/03/23 03:14:52;;;;;;;9.07;2.97;;;;;;;;;;4917246;29;20066;-68
2021/03/23 03:17:19;;;;;;;9.05;3.30;;;;;;;;;;4900357;29;20068;-68
2021/03/23 03:19:45;;;;;;;7.10;3.13;;;;;;;;;;4900180;29;20060;-67
2021/03/23 03:22:11;;;;;;;12.23;4.60;;;;;;;;;;4900689;29;20020;-68
2021/03/23 03:24:37;;;;;;;12.25;3.95;;;;;;;;;;4900258;29;20059;-67
2021/03/23 03:27:03;;;;;;;7.07;2.80;;;;;;;;;;4900556;29;20038;-67
2021/03/23 03:29:29;;;;;;;6.00;2.80;;;;;;;;;;4917775;29;20464;-68
2021/03/23 03:31:55;;;;;;;8.05;3.13;;;;;;;;;;4916982;29;20043;-68
2021/03/23 03:34:21;;;;;;;7.78;3.05;;;;;;;;;;4917404;29;20032;-67
2021/03/23 03:36:48;;;;;;;7.93;3.20;;;;;;;;;;4900714;29;20387;-67
2021/03/23 03:39:14;;;;;;;7.90;3.25;;;;;;;;;;4900211;29;20139;-68
2021/03/23 03:41:40;;;;;;;7.97;3.25;;;;;;;;;;4917520;29;20103;-67
2021/03/23 03:44:06;;;;;;;6.50;2.95;;;;;;;;;;4917453;29;20035;-68
2021/03/23 03:46:33;;;;;;;7.13;3.22;;;;;;;;;;4917384;29;20024;-68
2021/03/23 03:48:59;;;;;;;6.50;3.00;;;;;;;;;;4917365;29;20031;-69
2021/03/23 03:51:25;;;;;;;12.13;3.17;;;;;;;;;;4917343;29;20468;-69
2021/03/23 03:53:51;;;;;;;7.25;3.00;;;;;;;;;;4916761;29;20432;-68
2021/03/23 03:56:18;;;;;;;10.25;3.00;;;;;;;;;;4900244;29;20054;-66
2021/03/23 03:58:44;;;;;;;7.72;3.40;;;;;;;;;;4900322;29;20476;-67
2021/03/23 04:01:11;;;;;;;6.40;3.00;;;;;;;;;;4900001;29;20167;-68
2021/03/23 04:03:37;;;;;;;9.13;3.38;;;;;;;;;;4917465;29;20035;-69
2021/03/23 04:06:03;;;;;;;8.02;3.05;;;;;;;;;;4916963;29;20028;-68
2021/03/23 04:08:31;;;;;;;7.90;3.15;;;;;;;;;;4916910;29;20020;-70
2021/03/23 04:10:58;;;;;;;9.75;3.42;;;;;;;;;;4900197;29;20032;-68
2021/03/23 04:13:24;;;;;;;8.43;3.67;;;;;;;;;;4917098;29;20103;-68
2021/03/23 04:15:51;;;;;;;10.30;3.78;;;;;;;;;;4916791;29;20036;-67
2021/03/23 04:18:19;;;;;;;6.35;3.67;;;;;;;;;;4916863;29;20063;-67
2021/03/23 04:20:45;;;;;;;8.02;3.28;;;;;;;;;;4916823;29;20032;-67
2021/03/23 04:23:22;;;;;;;7.35;3.45;;;;;;;;;;4916825;29;20024;-70
2021/03/23 04:25:49;;;;;;;9.27;3.38;;;;;;;;;;4917238;29;20024;-68
2021/03/23 04:28:15;;;;;;;7.72;3.60;;;;;;;;;;4919608;29;20487;-69
2021/03/23 04:30:41;;;;;;;10.23;3.38;;;;;;;;;;4920483;29;20028;-70
2021/03/23 04:33:07;;;;;;;8.43;3.35;;;;;;;;;;4920167;29;20071;-68
2021/03/23 04:35:42;;;;;;;8.00;3.20;;;;;;;;;;4920042;29;20028;-67
2021/03/23 04:38:09;;;;;;;10.38;3.78;;;;;;;;;;4903361;29;20433;-68
2021/03/23 04:40:35;;;;;;;11.85;3.80;;;;;;;;;;4920259;29;20048;-68
2021/03/23 04:43:01;;;;;;;8.98;3.80;;;;;;;;;;4920006;29;20028;-69
2021/03/23 04:45:27;;;;;;;9.27;3.35;;;;;;;;;;4919925;29;20032;-67
2021/03/23 04:47:54;;;;;;;9.20;3.67;;;;;;;;;;4920196;29;20029;-69
2021/03/23 04:50:20;;;;;;;9.25;3.85;;;;;;;;;;4919562;29;20030;-67
2021/03/23 04:52:46;;;;;;;9.65;3.90;;;;;;;;;;4920144;29;20043;-68
2021/03/23 04:55:13;;;;;;;10.63;4.20;;;;;;;;;;4902991;29;20127;-69
2021/03/23 04:57:39;;;;;;;13.73;4.18;;;;;;;;;;4919994;29;20052;-69
2021/03/23 05:00:06;;;;;;;12.05;5.00;;;;;;;;;;4902826;29;20031;-69
2021/03/23 05:02:32;;;;;;;9.40;4.32;;;;;;;;;;4919819;29;20075;-68
2021/03/23 05:04:58;;;;;;;11.30;5.85;;;;;;;;;;4901932;29;20024;-69
2021/03/23 05:07:25;;;;;;;10.55;4.93;;;;;;;;;;4919351;29;20029;-70
2021/03/23 05:09:51;;;;;;;10.13;5.28;;;;;;;;;;4902063;29;20032;-70
2021/03/23 05:12:17;;;;;;;12.40;5.57;;;;;;;;;;4919054;29;20016;-69
2021/03/23 05:14:44;;;;;;;10.18;4.70;;;;;;;;;;4902281;29;20034;-72
2021/03/23 05:17:10;;;;;;;14.38;7.80;;;;;;;;;;4901649;29;20058;-69
2021/03/23 05:19:36;;;;;;;11.05;4.95;;;;;;;;;;4918802;29;20058;-70
2021/03/23 05:22:03;;;;;;;13.55;8.07;;;;;;;;;;4918921;29;20016;-69
2021/03/23 05:24:29;;;;;;;19.77;9.43;;;;;;;;;;4918744;29;20032;-69
2021/03/23 05:26:55;;;;;;;21.15;8.45;;;;;;;;;;4902188;29;20076;-69
2021/03/23 05:29:21;;;;;;;17.80;10.82;;;;;;;;;;4919182;29;20051;-68
2021/03/23 05:31:47;;;;;;;8.35;4.15;;;;;;;;;;4918839;29;20427;-70
2021/03/23 05:34:14;;;;;;;12.25;5.40;;;;;;;;;;4902310;29;20357;-68
2021/03/23 05:36:44;;;;;;;13.93;6.40;;;;;;;;;;4918912;29;20031;-67
2021/03/23 05:39:11;;;;;;;9.32;4.80;;;;;;;;;;4917778;29;20030;-68
2021/03/23 05:41:56;;;;;;;12.40;6.28;;;;;;;;;;4902218;29;20544;-68
2021/03/23 05:44:40;;;;;;;14.60;6.90;;;;;;;;;;4919075;29;20495;-67
2021/03/23 05:47:17;;;;;;;14.43;7.22;;;;;;;;;;4902064;29;20381;-67
2021/03/23 05:49:49;;;;;;;15.13;5.20;;;;;;;;;;4918641;29;20032;-68
2021/03/23 05:52:20;;;;;;;20.00;10.48;;;;;;;;;;4918585;29;20020;-69
2021/03/23 05:54:55;;;;;;;13.77;7.00;;;;;;;;;;4918791;29;20032;-68
2021/03/23 05:57:30;;;;;;;13.02;5.53;;;;;;;;;;4918435;29;20032;-68
2021/03/23 06:00:05;;;;;;;16.83;6.00;;;;;;;;;;4918059;29;20103;-67
2021/03/23 06:02:48;;;;;;;14.63;9.48;;;;;;;;;;4918905;29;20028;-69
2021/03/23 06:05:14;;;;;;;;;;;;;;;;;;4901586;29;20420;-67
2021/03/23 06:07:40;;;;;;;11.45;6.15;;;;;;;;;;4901278;29;19907;-70
2021/03/23 06:10:13;;;;;;;15.70;6.72;;;;;;;;;;4901694;29;20024;-68
2021/03/23 06:12:52;;;;;;;14.55;7.20;;;;;;;;;;4918245;29;20031;-67
2021/03/23 06:15:18;;;;;;;13.07;5.45;;;;;;;;;;4917942;29;20043;-69
2021/03/23 06:18:02;;;;;;;13.38;6.55;;;;;;;;;;4917688;29;20024;-69
2021/03/23 06:20:37;;;;;;;15.10;6.75;;;;;;;;;;4917763;29;20079;-68
2021/03/23 06:23:09;;;;;;;12.55;5.47;;;;;;;;;;4918204;29;20056;-70
2021/03/23 06:25:35;;;;;;;;;;;;;;;;;;4918942;29;20111;-69
2021/03/23 06:28:20;;;;;;;22.08;5.82;;;;;;;;;;4900460;29;19975;-68
2021/03/23 06:31:16;;;;;;;13.02;6.07;;;;;;;;;;4901085;29;20032;-69
2021/03/23 06:33:42;;;;;;;16.10;5.80;;;;;;;;;;4901440;29;20035;-67
2021/03/23 06:36:19;;;;;;;13.90;6.85;;;;;;;;;;4917559;29;20432;-68
2021/03/23 06:38:45;;;;;;;12.13;5.57;;;;;;;;;;4918055;29;20028;-68
2021/03/23 06:41:12;;;;;;;11.55;5.60;;;;;;;;;;4917060;29;20024;-69
2021/03/23 06:43:39;;;;;;;12.57;6.38;;;;;;;;;;4911064;29;20047;-70
2021/03/23 06:46:21;;;;;;;13.48;5.75;;;;;;;;;;4907747;29;20039;-72
2021/03/23 06:49:00;;;;;;;12.13;5.45;;;;;;;;;;4908916;29;20028;-72
2021/03/23 06:51:27;;;;;;;11.13;5.20;;;;;;;;;;4917557;29;20028;-70
2021/03/23 06:53:53;;;;;;;14.88;6.63;;;;;;;;;;4914853;29;20028;-70
2021/03/23 06:56:19;;;;;;;11.73;6.00;;;;;;;;;;4914622;29;20032;-69
2021/03/23 06:58:46;;;;;;;44.22;16.27;;;;;;;;;;4898284;29;20585;-70
2021/03/23 07:01:23;;;;;;;30.75;12.45;;;;;;;;;;4890143;29;20309;-67
2021/03/23 07:03:51;;;;;;;14.77;6.95;;;;;;;;;;4894182;29;20171;-71
2021/03/23 07:06:23;;;;;;;27.42;14.05;;;;;;;;;;4897409;29;20532;-72
2021/03/23 07:09:05;;;;;;;12.85;6.32;;;;;;;;;;4895478;29;20028;-70
2021/03/23 07:11:49;;;;;;;17.23;8.30;;;;;;;;;;4912291;29;20020;-71
2021/03/23 07:14:26;;;;;;;11.52;5.32;;;;;;;;;;4911098;29;20035;-70
2021/03/23 07:17:01;;;;;;;12.60;6.10;;;;;;;;;;4881480;29;20021;-69
2021/03/23 07:19:27;;;;;;;11.13;4.85;;;;;;;;;;4880302;29;20064;-69
2021/03/23 07:22:00;;;;;;;12.60;5.80;;;;;;;;;;4912196;29;20028;-71
2021/03/23 07:24:31;;;;;;;20.38;8.50;;;;;;;;;;4889578;29;20109;-72
2021/03/23 07:26:59;;;;;;;12.60;5.25;;;;;;;;;;4893777;29;20028;-68
2021/03/23 07:29:29;;;;;;;12.15;5.97;;;;;;;;;;4894040;29;20020;-70
2021/03/23 07:32:11;;;;;;;16.48;8.18;;;;;;;;;;4903520;29;20498;-69
2021/03/23 07:34:49;;;;;;;10.60;3.93;;;;;;;;;;4892239;29;20099;-67
2021/03/23 07:37:21;;;;;;;21.73;7.65;;;;;;;;;;4906732;29;20024;-67
2021/03/23 07:39:47;;;;;;;;;;;;;;;;;;4916666;29;20111;-68
2021/03/23 07:42:26;;;;;;;22.15;9.75;;;;;;;;;;4899044;29;19915;-76
2021/03/23 07:44:55;;;;;;;20.73;8.60;;;;;;;;;;4891359;29;20072;-74
2021/03/23 07:47:36;;;;;;;10.00;5.20;;;;;;;;;;4892337;29;20036;-77
2021/03/23 07:50:05;;;;;;;12.38;6.07;;;;;;;;;;4887288;29;20068;-76
2021/03/23 07:52:33;;;;;;;18.92;8.52;;;;;;;;;;4895174;29;20016;-78
2021/03/23 07:55:00;;;;;;;12.07;6.03;;;;;;;;;;4894578;29;20115;-77
2021/03/23 07:57:45;;;;;;;13.30;5.80;;;;;;;;;;4890871;29;20039;-76
2021/03/23 08:00:12;;;;;;;12.25;4.95;;;;;;;;;;4889562;29;20044;-74
2021/03/23 08:02:54;;;;;;;8.18;4.80;;;;;;;;;;4908089;29;20036;-77
2021/03/23 08:05:27;;;;;;;11.27;5.93;;;;;;;;;;4893907;29;20020;-72
2021/03/23 08:08:11;;;;;;;13.43;6.30;;;;;;;;;;4896133;29;20481;-73
2021/03/23 08:10:47;;;;;;;11.50;5.05;;;;;;;;;;4896701;29;20029;-73
2021/03/23 08:13:26;;;;;;;23.92;12.52;;;;;;;;;;4896997;29;20036;-73
2021/03/23 08:15:55;;;;;;;17.65;10.68;;;;;;;;;;4892588;29;20070;-73
2021/03/23 08:18:27;;;;;;;9.75;5.35;;;;;;;;;;4895121;29;20504;-75
2021/03/23 08:20:56;;;;;;;12.43;6.10;;;;;;;;;;4893424;29;20764;-71
2021/03/23 08:23:26;;;;;;;14.20;8.75;;;;;;;;;;4917614;29;20027;-71
2021/03/23 08:25:57;;;;;;;13.30;8.15;;;;;;;;;;4903239;29;20051;-71
2021/03/23 08:29:00;;;;;;;8.88;4.15;;;;;;;;;;4917450;29;20459;-72
2021/03/23 08:31:26;;;;;;;13.73;6.20;;;;;;;;;;4808584;29;20475;-74
2021/03/23 08:34:10;;;;;;;10.23;5.00;;;;;;;;;;4816104;29;20077;-74
2021/03/23 08:36:43;;;;;;;13.80;6.40;;;;;;;;;;4822254;29;20035;-67
2021/03/23 08:39:32;;;;;;;17.90;7.07;;;;;;;;;;4818401;29;20064;-69
2021/03/23 08:42:11;;;;;;;13.80;5.82;;;;;;;;;;4815088;29;20066;-69
2021/03/23 08:44:39;;;;;;;9.07;4.20;;;;;;;;;;4821926;29;20084;-67
2021/03/23 08:47:25;;;;;;;10.65;5.03;;;;;;;;;;4805521;29;20043;-68
2021/03/23 08:49:55;;;;;;;12.63;5.22;;;;;;;;;;4821625;29;20030;-68
2021/03/23 08:52:27;;;;;;;9.00;4.60;;;;;;;;;;4821581;29;20049;-68
2021/03/23 08:54:57;;;;;;;10.95;6.28;;;;;;;;;;4821504;29;20125;-67
2021/03/23 08:57:45;;;;;;;11.00;5.13;;;;;;;;;;4806160;29;20081;-69
2021/03/23 09:00:32;;;;;;;21.50;10.25;;;;;;;;;;4819667;29;20079;-69
2021/03/23 09:03:02;;;;;;;32.60;15.70;;;;;;;;;;4826545;29;20036;-68
2021/03/23 09:05:32;;;;;;;19.52;8.77;;;;;;;;;;4873930;29;20495;-67
2021/03/23 09:08:17;;;;;;;16.20;7.60;;;;;;;;;;4897214;29;20090;-67
2021/03/23 09:10:54;;;;;;;14.23;6.55;;;;;;;;;;4916067;29;20035;-69
2021/03/23 09:13:44;;;;;;;9.07;4.60;;;;;;;;;;4897418;29;20024;-68
2021/03/23 09:16:13;;;;;;;11.80;4.45;;;;;;;;;;4878959;29;20049;-66
2021/03/23 09:18:59;;;;;;;8.23;4.28;;;;;;;;;;4914197;29;20048;-67
2021/03/23 09:21:25;;;;;;;16.40;7.93;;;;;;;;;;4914633;29;20032;-68
2021/03/23 09:23:53;;;;;;;13.98;4.25;;;;;;;;;;4916927;29;20060;-68
2021/03/23 09:26:31;;;;;;;12.25;6.50;;;;;;;;;;4914952;29;20083;-68
2021/03/23 09:29:17;;;;;;;12.55;5.63;;;;;;;;;;4916345;29;20099;-68
2021/03/23 09:31:49;;;;;;;11.38;6.15;;;;;;;;;;4899021;29;20024;-69
2021/03/23 09:34:36;;;;;;;9.20;4.53;;;;;;;;;;4894076;29;20168;-69
2021/03/23 09:37:16;;;;;;;8.13;4.53;;;;;;;;;;4863049;29;20036;-69
2021/03/23 09:39:46;;;;;;;14.82;9.57;;;;;;;;;;4916155;29;20129;-69
2021/03/23 09:45:17;;;;;;;11.73;5.22;;;;;;;;;;4915421;29;20040;-68
2021/03/23 09:47:51;;;;;;;9.10;3.97;;;;;;;;;;4916524;29;20385;-68
2021/03/23 09:50:30;;;;;;;8.90;4.22;;;;;;;;;;4916832;29;20029;-69
2021/03/23 09:53:19;;;;;;;8.95;4.18;;;;;;;;;;4898356;29;20066;-68
2021/03/23 09:55:45;;;;;;;9.07;3.72;;;;;;;;;;4858936;29;20078;-67
2021/03/23 09:58:32;;;;;;;7.32;3.55;;;;;;;;;;4859888;29;20037;-68
2021/03/23 10:01:18;;;;;;;12.25;4.70;;;;;;;;;;4858469;29;20170;-69
2021/03/23 10:04:35;;;;;;;13.93;6.70;;;;;;;;;;4857848;29;20733;-70
2021/03/23 10:07:09;;;;;;;9.23;4.50;;;;;;;;;;4800741;29;20399;-69
2021/03/23 10:09:36;;;;;;;15.68;6.60;;;;;;;;;;4803592;29;20491;-68
2021/03/23 10:12:03;;;;;;;14.88;7.03;;;;;;;;;;4804320;29;20091;-68
2021/03/23 10:14:30;;;;;;;33.90;14.15;;;;;;;;;;4807289;29;20085;-68
2021/03/23 10:17:06;;;;;;;22.95;11.85;;;;;;;;;;4803150;29;20034;-70
2021/03/23 10:19:37;;;;;;;6.55;3.45;;;;;;;;;;4804018;29;20511;-68
2021/03/23 10:22:13;;;;;;;12.15;2.50;;;;;;;;;;4798210;29;20046;-69
2021/03/23 10:24:40;;;;;;;6.85;3.67;;;;;;;;;;4800441;29;20432;-68
2021/03/23 10:27:19;;;;;;;11.77;5.35;;;;;;;;;;4802910;29;20031;-68
2021/03/23 10:29:56;;;;;;;14.40;5.82;;;;;;;;;;4802437;29;20130;-67
2021/03/23 10:32:33;;;;;;;9.77;5.30;;;;;;;;;;4814238;29;20038;-69
2021/03/23 10:35:06;;;;;;;7.95;4.13;;;;;;;;;;4838725;29;20038;-69
2021/03/23 10:37:33;;;;;;;17.70;8.85;;;;;;;;;;4837415;29;20838;-70
2021/03/23 10:39:59;;;;;;;10.23;4.75;;;;;;;;;;4833296;29;20072;-69
2021/03/23 10:42:27;;;;;;;9.48;4.55;;;;;;;;;;4908531;29;20023;-71
2021/03/23 10:45:10;;;;;;;11.30;6.13;;;;;;;;;;4893086;29;20805;-69
2021/03/23 10:47:38;;;;;;;21.92;10.63;;;;;;;;;;4883247;29;20606;-71
2021/03/23 10:50:25;;;;;;;6.80;3.70;;;;;;;;;;4893214;29;20040;-70
2021/03/23 10:52:53;;;;;;;9.15;5.00;;;;;;;;;;4896364;29;20020;-71
2021/03/23 10:55:23;;;;;;;10.07;4.95;;;;;;;;;;4913657;29;20039;-69
2021/03/23 10:57:49;;;;;;;12.55;5.78;;;;;;;;;;4912688;29;20536;-69
2021/03/23 11:00:31;;;;;;;8.15;4.15;;;;;;;;;;4911723;29;20047;-69
2021/03/23 11:03:13;;;;;;;10.50;5.53;;;;;;;;;;4889592;29;20052;-70
2021/03/23 11:05:43;;;;;;;8.13;3.65;;;;;;;;;;4890246;29;20031;-69
2021/03/23 11:08:12;;;;;;;8.02;3.80;;;;;;;;;;4907318;29;20516;-70
2021/03/23 11:10:40;;;;;;;10.27;4.07;;;;;;;;;;4890745;29;20445;-69
2021/03/23 11:13:06;;;;;;;7.10;3.60;;;;;;;;;;4906207;29;20469;-69
2021/03/23 11:15:41;;;;;;;9.90;4.75;;;;;;;;;;4908178;29;20040;-70
2021/03/23 11:18:28;;;;;;;8.50;4.25;;;;;;;;;;4908919;29;20039;-70
2021/03/23 11:20:55;;;;;;;8.90;4.47;;;;;;;;;;4890328;29;20059;-69
2021/03/23 11:23:48;;;;;;;9.70;5.47;;;;;;;;;;4890417;29;20024;-70
2021/03/23 11:26:17;;;;;;;12.50;6.03;;;;;;;;;;4909496;29;20055;-69
2021/03/23 11:28:47;;;;;;;6.88;4.05;;;;;;;;;;4906415;29;20024;-68
2021/03/23 11:31:16;;;;;;;7.18;3.58;;;;;;;;;;4907734;29;20028;-69
2021/03/23 11:33:43;;;;;;;5.85;3.10;;;;;;;;;;4906664;29;20508;-68
2021/03/23 11:36:11;;;;;;;11.95;5.55;;;;;;;;;;4887915;29;20034;-68
2021/03/23 11:38:37;;;;;;;10.77;5.10;;;;;;;;;;4911636;29;20036;-67
2021/03/23 11:41:05;;;;;;;8.35;4.47;;;;;;;;;;4913805;29;20035;-67
2021/03/23 11:43:36;;;;;;;5.75;3.70;;;;;;;;;;4915829;29;20028;-69
2021/03/23 11:46:08;;;;;;;8.40;3.83;;;;;;;;;;4917048;29;20032;-68
2021/03/23 11:48:37;;;;;;;7.78;3.78;;;;;;;;;;4912205;29;20038;-67
2021/03/23 11:51:04;;;;;;;7.50;4.05;;;;;;;;;;4909689;29;20028;-68
2021/03/23 11:53:30;;;;;;;15.70;6.75;;;;;;;;;;4916758;29;20095;-68
2021/03/23 11:55:56;;;;;;;12.60;6.13;;;;;;;;;;4914148;29;20136;-68
2021/03/23 11:58:25;;;;;;;12.30;4.60;;;;;;;;;;4911981;29;20099;-68
2021/03/23 12:00:51;;;;;;;5.05;2.72;;;;;;;;;;4913023;29;20024;-68
2021/03/23 12:03:17;;;;;;;18.23;9.07;;;;;;;;;;4911077;29;20095;-67
2021/03/23 12:05:44;;;;;;;7.07;3.85;;;;;;;;;;4912702;29;20465;-68
2021/03/23 12:08:13;;;;;;;6.05;2.70;;;;;;;;;;4909502;29;20047;-68
2021/03/23 12:10:42;;;;;;;7.95;3.65;;;;;;;;;;4912262;29;20024;-69
2021/03/23 12:13:20;;;;;;;10.05;4.30;;;;;;;;;;4912417;29;20100;-68
2021/03/23 12:16:01;;;;;;;8.65;3.92;;;;;;;;;;4914643;29;20036;-68
2021/03/23 12:18:28;;;;;;;9.25;4.45;;;;;;;;;;4909278;29;20427;-68
2021/03/23 12:20:57;;;;;;;9.00;4.60;;;;;;;;;;4913277;29;20438;-69
2021/03/23 12:23:24;;;;;;;5.50;3.17;;;;;;;;;;4917960;29;20086;-67
2021/03/23 12:25:53;;;;;;;6.38;2.63;;;;;;;;;;4917771;29;20028;-67
2021/03/23 12:28:20;;;;;;;10.93;4.80;;;;;;;;;;4913117;29;20056;-68
2021/03/23 12:30:46;;;;;;;11.65;5.90;;;;;;;;;;4914822;29;20417;-69
2021/03/23 12:33:12;;;;;;;10.07;4.95;;;;;;;;;;4899214;29;20028;-66
2021/03/23 12:35:38;;;;;;;12.50;4.28;;;;;;;;;;4915161;29;20047;-67
2021/03/23 12:38:06;;;;;;;7.63;4.25;;;;;;;;;;4917367;29;20072;-68
2021/03/23 12:40:38;;;;;;;9.70;4.60;;;;;;;;;;4916266;29;20063;-67
2021/03/23 12:43:09;;;;;;;9.23;4.13;;;;;;;;;;4915435;29;20036;-67
2021/03/23 12:45:37;;;;;;;10.95;6.30;;;;;;;;;;4912907;29;20464;-67
2021/03/23 12:48:03;;;;;;;8.00;4.03;;;;;;;;;;4914562;29;20115;-67
2021/03/23 12:50:29;;;;;;;8.80;4.90;;;;;;;;;;4910843;29;20414;-66
2021/03/23 12:52:56;;;;;;;10.57;4.95;;;;;;;;;;4915286;29;20021;-67
2021/03/23 12:55:25;;;;;;;11.18;5.65;;;;;;;;;;4911832;29;20036;-67
2021/03/23 12:57:52;;;;;;;7.53;3.60;;;;;;;;;;4919797;29;20024;-67
2021/03/23 13:00:24;;;;;;;7.47;3.78;;;;;;;;;;4902275;29;20027;-67
2021/03/23 13:02:50;;;;;;;;;;;;;;;;;;4918534;29;20032;-67
2021/03/23 13:05:17;;;;;;;7.03;5.03;;;;;;;;;;4918449;29;20383;-68
2021/03/23 13:07:43;;;;;;;9.52;4.82;;;;;;;;;;4918719;29;20099;-67
2021/03/23 13:10:29;;;;;;;8.77;4.72;;;;;;;;;;4918971;29;20380;-66
2021/03/23 13:12:57;;;;;;;9.15;4.13;;;;;;;;;;4917636;29;20366;-67
2021/03/23 13:15:23;;;;;;;6.70;3.78;;;;;;;;;;4918684;29;20497;-68
2021/03/23 13:17:49;;;;;;;8.45;4.20;;;;;;;;;;4917995;29;20046;-68
2021/03/23 13:20:17;;;;;;;7.00;4.78;;;;;;;;;;4917610;29;20030;-68
2021/03/23 13:23:02;;;;;;;8.48;4.60;;;;;;;;;;4917694;29;20417;-68
2021/03/23 13:25:51;;;;;;;8.20;3.67;;;;;;;;;;4915572;29;20032;-69
2021/03/23 13:28:29;;;;;;;10.10;5.00;;;;;;;;;;4897494;29;20380;-68
2021/03/23 13:30:58;;;;;;;8.95;4.95;;;;;;;;;;4914064;29;20036;-69
2021/03/23 13:33:25;;;;;;;8.30;4.30;;;;;;;;;;4901153;29;20036;-68
2021/03/23 13:35:52;;;;;;;13.75;7.78;;;;;;;;;;4916492;29;20110;-68
2021/03/23 13:38:19;;;;;;;9.10;4.43;;;;;;;;;;4917552;29;20506;-68
2021/03/23 13:40:46;;;;;;;10.68;4.47;;;;;;;;;;4916643;29;20028;-68
2021/03/23 13:43:16;;;;;;;6.00;3.95;;;;;;;;;;4901247;29;20017;-67
2021/03/23 13:46:11;;;;;;;5.93;3.40;;;;;;;;;;4916905;29;20020;-68
2021/03/23 13:48:38;;;;;;;6.75;4.00;;;;;;;;;;4795119;29;20048;-68
2021/03/23 13:51:05;;;;;;;10.88;6.05;;;;;;;;;;4797988;29;20484;-70
2021/03/23 13:53:34;;;;;;;8.20;3.22;;;;;;;;;;4794073;29;20054;-67
2021/03/23 13:56:03;;;;;;;7.10;3.90;;;;;;;;;;4795996;29;20381;-67
2021/03/23 13:58:29;;;;;;;11.93;5.18;;;;;;;;;;4795775;29;20432;-68
2021/03/23 14:00:55;;;;;;;8.55;4.20;;;;;;;;;;4795735;29;20049;-67
2021/03/23 14:03:22;;;;;;;10.85;5.32;;;;;;;;;;4789801;29;20133;-65
2021/03/23 14:05:48;;;;;;;6.00;3.22;;;;;;;;;;4791884;29;20115;-68
2021/03/23 14:08:17;;;;;;;7.38;4.00;;;;;;;;;;4793327;29;20085;-66
2021/03/23 14:10:45;;;;;;;9.52;4.53;;;;;;;;;;4796157;29;20060;-71
2021/03/23 14:13:11;;;;;;;11.88;4.63;;;;;;;;;;4796347;29;20032;-67
2021/03/23 14:15:38;;;;;;;6.38;3.40;;;;;;;;;;4794642;29;20085;-67
2021/03/23 14:18:05;;;;;;;7.50;3.70;;;;;;;;;;4779961;29;20382;-66
2021/03/23 14:20:32;;;;;;;7.07;3.83;;;;;;;;;;4792069;29;20048;-66
2021/03/23 14:23:01;;;;;;;9.45;4.47;;;;;;;;;;4794758;29;20061;-68
2021/03/23 14:25:47;;;;;;;9.50;4.45;;;;;;;;;;4879437;29;20036;-70
2021/03/23 14:28:19;;;;;;;7.20;3.72;;;;;;;;;;4917245;29;20052;-70
2021/03/23 14:30:45;;;;;;;;;;;;;;;;;;4915473;29;20036;-66
2021/03/23 14:33:11;;;;;;;12.23;5.38;;;;;;;;;;4916420;29;20010;-68
2021/03/23 14:35:37;;;;;;;8.45;3.15;;;;;;;;;;4916750;29;20036;-68
2021/03/23 14:38:03;;;;;;;6.25;3.28;;;;;;;;;;4917425;29;20121;-67
2021/03/23 14:40:32;;;;;;;7.18;4.07;;;;;;;;;;4917095;29;20082;-67
2021/03/23 14:43:02;;;;;;;9.38;4.20;;;;;;;;;;4913362;29;20035;-66
2021/03/23 14:45:29;;;;;;;9.05;3.72;;;;;;;;;;4916782;29;20032;-66
2021/03/23 14:47:55;;;;;;;10.05;4.47;;;;;;;;;;4899417;29;20032;-66
2021/03/23 14:50:21;;;;;;;9.48;4.30;;;;;;;;;;4917202;29;20024;-67
2021/03/23 14:52:48;;;;;;;7.55;3.45;;;;;;;;;;4916813;29;20060;-68
2021/03/23 14:55:19;;;;;;;9.27;4.30;;;;;;;;;;4916382;29;20043;-67
2021/03/23 14:57:50;;;;;;;43.03;16.90;;;;;;;;;;4914984;29;20156;-68
2021/03/23 15:00:28;;;;;;;9.85;3.88;;;;;;;;;;4894766;29;20330;-67
2021/03/23 15:02:58;;;;;;;24.17;10.38;;;;;;;;;;4913179;29;20035;-68